METAR Data
IDs: Format: Raw Decoded Include TAF

Data at: 0859 UTC 26 Jan 2020

KY50 260856Z AUTO 28013KT 10SM OVC011 01/M02 A2987 RMK AO2 SLP123 60000 T00061017 53005 FZRANO $
KY50 260756Z AUTO 28009KT 10SM OVC011 01/M01 A2987 RMK AO2 RAB17E29UPB27E28 SLP119 P0000 T00061011 FZRANO $
KY50 260720Z AUTO 28012KT 10SM -RA OVC011 01/M01 A2987 RMK AO2 RAB17 P0000 FZRANO $
KY50 260656Z AUTO 28010KT 10SM OVC009 01/M01 A2987 RMK AO2 RAB34E54 SLP120 P0000 T00061011 FZRANO $
KY50 260615Z AUTO 29009KT 10SM OVC009 01/M01 A2986 RMK AO2 FZRANO $
KY50 260556Z AUTO 29011KT 10SM OVC011 01/M01 A2986 RMK AO2 SLP117 60000 T00061006 10011 20006 400220000 FZRANO $
KY50 260456Z AUTO 28009KT 10SM OVC011 01/M01 A2986 RMK AO2 SLP118 T00061006 FZRANO $
KY50 260453Z AUTO 28008KT 10SM BKN011 OVC018 01/M01 A2986 RMK AO2 FZRANO $
KY50 260423Z AUTO 28006KT 10SM BKN009 BKN018 OVC035 01/M01 A2986 RMK AO2 FZRANO $
KY50 260413Z AUTO 28008KT 10SM SCT009 BKN018 OVC038 01/M01 A2986 RMK AO2 FZRANO $
KY50 260404Z AUTO 28008KT 10SM FEW009 SCT020 OVC035 01/M01 A2986 RMK AO2 FZRANO $
KY50 260356Z AUTO 28008KT 10SM BKN020 OVC039 01/M01 RMK AO2 SLPNO T00111006 FZRANO $
KY50 260335Z AUTO 28007KT 10SM BKN020 OVC034 01/M01 A2985 RMK AO2 FZRANO $
KY50 260309Z AUTO 28007KT 10SM SCT016 OVC036 01/00 A2985 RMK AO2 FZRANO $
KY50 260256Z AUTO 27007KT 10SM BKN016 OVC038 01/00 A2985 RMK AO2 SLP115 60000 T00110000 58000 FZRANO $
KY50 260241Z AUTO 28007KT 10SM BKN016 OVC038 01/00 A2985 RMK AO2 FZRANO $
KY50 260215Z AUTO 30007KT 10SM SCT010 SCT021 OVC036 01/00 A2985 RMK AO2 FZRANO $
KY50 260156Z AUTO 29007KT 10SM BKN010 OVC021 01/00 A2985 RMK AO2 SLPNO T00110000 FZRANO $
KY50 260154Z AUTO 29007KT 10SM BKN010 OVC021 01/00 A2985 RMK AO2 FZRANO $
KY50 260132Z AUTO 29006KT 10SM FEW010 BKN021 OVC033 01/00 A2985 RMK AO2 FZRANO $
KY50 260056Z AUTO 29007KT 10SM BKN012 OVC016 01/00 A2985 RMK AO2 UPB07E22 SLPNO P0000 T00110000 FZRANO $
KY50 260043Z AUTO 28007KT 10SM BKN012 BKN016 OVC028 01/00 A2985 RMK AO2 UPB07E22 P0000 FZRANO $
KY50 252356Z AUTO 28005KT 10SM BKN021 OVC028 01/00 A2984 RMK AO2 UPB17E32 SLPNO P0000 6//// T00110000 10022 20011 53011 FZRANO $
KY50 252256Z AUTO 28005KT 10SM OVC026 01/M01 A2983 RMK AO2 SLPNO T00111006 FZRANO $
KY50 252156Z AUTO 29005KT 10SM OVC019 01/00 A2982 RMK AO2 UPB34E45 SLP105 T00110000 FZRANO $
KY50 252056Z AUTO 31007KT 10SM SCT013 OVC020 02/M01 A2981 RMK AO2 SLP101 6//// T00171006 53001 FZRANO $
KY50 251956Z AUTO 31007KT 10SM OVC016 02/M01 A2980 RMK AO2 SLP097 T00221006 FZRANO $
KY50 251939Z AUTO 31006KT 10SM OVC016 02/00 A2980 RMK AO2 FZRANO $
KY50 251856Z AUTO 32005KT 10SM OVC014 02/M01 A2980 RMK AO2 SLP099 T00171006 FZRANO $
KY50 251756Z AUTO 31007KT 10SM OVC012 02/M01 A2981 RMK AO2 SLP100 60004 T00221006 50002 FZRANO $
KY50 251714Z AUTO 32005KT 10SM BKN012 OVC018 02/00 A2981 RMK AO2 FZRANO $
KY50 251656Z AUTO 31006KT 10SM BKN009 OVC014 02/01 A2982 RMK AO2 UPB34E38SNE34 CIG 007V012 SLP103 P0000 T00220006 FZRANO $
KY50 251608Z AUTO 31005KT 3SM -SN BR BKN007 BKN022 OVC030 01/00 A2981 RMK AO2 P0000 FZRANO $
KY50 251559Z AUTO 32006KT 2SM -SN BR SCT007 BKN027 OVC032 01/00 A2981 RMK AO2 P0000 FZRANO $
KY50 251556Z AUTO 32005KT 1 1/2SM -SN BR FEW007 SCT022 OVC030 01/00 A2981 RMK AO2 SLP101 P0000 T00060000 FZRANO $
KY50 251548Z AUTO 32004KT 1 1/2SM -SN BR FEW007 BKN029 OVC046 01/00 A2980 RMK AO2 P0000 FZRANO $
KY50 251545Z AUTO 32005KT 1 3/4SM -SN BR SCT029 BKN037 OVC044 01/00 A2980 RMK AO2 P0000 FZRANO $
KY50 251456Z AUTO 31004KT 7SM -SN FEW039 SCT047 OVC070 00/00 A2980 RMK AO2 SLP098 P0000 60004 T00000000 50001 FZRANO $
KY50 251439Z AUTO 33005KT 5SM -SN BR FEW026 SCT033 OVC046 00/00 A2980 RMK AO2 P0000 FZRANO $
KY50 251431Z AUTO 33005KT 2 1/2SM -SN SCT026 BKN033 OVC048 A2980 RMK AO2 P0000 FZRANO $
KY50 251422Z AUTO 33004KT 1 1/2SM -SN FEW006 SCT024 OVC035 A2980 RMK AO2 P0000 FZRANO $
KY50 251406Z AUTO 34004KT 2SM -SN FEW006 BKN022 OVC049 RMK AO2 P0000 FZRANO $
KY50 251356Z AUTO 34003KT 1SM -SN SCT006 OVC020 A2980 RMK AO2 SLPNO P0001 FZRANO $
KY50 251347Z AUTO 34004KT 1SM -SN SCT006 OVC022 A2980 RMK AO2 P0000 FZRANO $
KY50 251341Z AUTO 34004KT 1 1/2SM -SN BKN006 OVC022 A2980 RMK AO2 CIG 005V009 P0000 FZRANO $
KY50 251331Z AUTO 34004KT 1 1/2SM -SN SCT006 OVC022 A2980 RMK AO2 P0000 FZRANO $
KY50 251315Z AUTO 33004KT 2 1/2SM -SN FEW006 OVC024 A2979 RMK AO2 VIS 1 1/2V3 P0000 FZRANO $
KY50 251303Z AUTO 33004KT 1 1/2SM -SN SCT006 BKN022 OVC030 A2979 RMK AO2 P0000 FZRANO $
KY50 251256Z AUTO 32004KT 1 3/4SM -SN SCT008 BKN014 OVC022 A2979 RMK AO2 SLPNO P0003 FZRANO $
KY50 251251Z AUTO 31004KT 2SM -SN BKN008 BKN014 OVC029 A2979 RMK AO2 CIG 003V011 P0002 FZRANO $
KY50 251232Z AUTO 31003KT 1 1/4SM -SN BKN008 OVC014 A2979 RMK AO2 CIG 005V009 P0001 FZRANO $
KY50 251222Z AUTO 00000KT 1SM -SN FEW008 OVC014 A2978 RMK AO2 P0001 FZRANO $
KY50 251214Z AUTO 33004KT 1 1/4SM -SN SCT008 BKN013 OVC025 A2978 RMK AO2 P0000 FZRANO $
KY50 251156Z AUTO 33006KT 2 1/2SM -SN SCT006 BKN020 OVC027 A2978 RMK AO2 SLPNO P0002 60006 7//// 52003 FZRANO $
KY50 251151Z AUTO 33007KT 2 1/2SM -SN SCT006 BKN016 OVC027 A2978 RMK AO2 P0002 FZRANO $
KY50 251144Z AUTO 32006KT 2SM -SN BKN006 BKN016 OVC027 A2978 RMK AO2 VIS 1 3/4V2 1/2 CIG 003V009 P0002 FZRANO $
KY50 251132Z AUTO 30005KT 1 3/4SM -SN BKN006 BKN016 OVC022 A2978 RMK AO2 CIG 003V010 P0001 FZRANO $
KY50 251056Z AUTO 31004KT 2 1/2SM -SN BKN006 BKN016 OVC026 A2977 RMK AO2 CIG 004V010 SLPNO P0002 FZRANO $
KY50 251051Z AUTO 31004KT 2SM -SN BKN006 BKN016 OVC022 A2977 RMK AO2 CIG 004V010 P0002 FZRANO $
KY50 250956Z AUTO 32003KT 1 1/2SM -SN BKN006 OVC011 00/ A2977 RMK AO2 CIG 004V009 SLP090 P0001 T0000 FZRANO $
KY50 250939Z AUTO 33004KT 1 1/2SM -SN BR BKN006 OVC027 00/M01 A2977 RMK AO2 CIG 004V011 P0001 FZRANO $
KY50 250856Z AUTO 34004KT 2SM -SN BR BKN008 OVC026 00/M01 A2978 RMK AO2 UPE07B30E32SNB07E30B32 CIG 005V012 SLP091 P0000 60001 T00001006 58008 FZRANO $
KY50 250843Z AUTO 34004KT 2 1/2SM -SN BR BKN008 OVC026 00/M01 A2978 RMK AO2 VIS 2V4 UPE07B30E32SNB07E30B32 CIG 005V012 P0000 FZRANO $
KY50 250756Z AUTO 34004KT 6SM UP BR BKN008 OVC013 00/M01 A2979 RMK AO2 UPB38SNE38 CIG 005V010 SLP095 P0000 T00001006 FZRANO $
KY50 250715Z AUTO 33004KT 8SM -SN OVC012 00/M01 A2979 RMK AO2 P0000 FZRANO $
KY50 250656Z AUTO 33004KT 8SM -SN OVC009 00/M01 A2979 RMK AO2 UPB03E10SNE03B10 CIG 007V013 SLP095 P0001 T00001006 FZRANO $
KY50 250607Z AUTO 33004KT 4SM UP BR OVC007 00/M01 A2980 RMK AO2 UPB03SNE03 CIG 003V011 P0000 FZRANO $
KY50 250556Z AUTO 34005KT 2 1/2SM -SN BR OVC005 00/M01 A2980 RMK AO2 CIG 003V009 SLP099 P0001 60010 T00001006 10006 20000 400111006 57005 FZRANO $
KY50 250544Z AUTO 33004KT 1 3/4SM -SN BR OVC005 00/M01 A2980 RMK AO2 CIG 003V009 P0001 FZRANO $
KY50 250521Z AUTO 34004KT 2SM -SN BR BKN007 OVC010 00/M01 A2981 RMK AO2 VIS 1 1/2V4 CIG 004V008 P0000 FZRANO $
KY50 250514Z AUTO 34004KT 1 3/4SM -SN BR OVC007 00/M01 A2981 RMK AO2 CIG 004V012 P0000 FZRANO $
KY50 250456Z AUTO 34005KT 3SM -SN BR OVC007 00/M01 A2982 RMK AO2 CIG 005V012 SLP104 P0003 T00001006 FZRANO $
KY50 250448Z AUTO 35003KT 1 3/4SM -SN BR OVC007 00/M01 A2982 RMK AO2 CIG 004V010 P0002 FZRANO $
KY50 250434Z AUTO 35004KT 2SM -SN BR OVC007 00/M01 A2982 RMK AO2 CIG 003V010 P0002 FZRANO $
KY50 250417Z AUTO 34005KT 1 1/4SM -SN BR OVC005 00/M01 A2982 RMK AO2 CIG 003V007 P0001 FZRANO $
KY50 250356Z AUTO 34004KT 1SM -SN BR OVC005 00/M01 A2982 RMK AO2 CIG 003V008 SLP106 P0005 T00001006 FZRANO $
KY50 250319Z AUTO 01003KT 1SM -SN BR OVC005 00/00 A2983 RMK AO2 P0001 FZRANO $
KY50 250256Z AUTO 36003KT 1 3/4SM -SN BR OVC005 00/00 A2983 RMK AO2 UPE14RAB14E21SNB21 SLP109 P0001 60001 T00000000 56003 FZRANO $
KY50 250251Z AUTO 35004KT 2SM -SN BR OVC005 00/00 A2983 RMK AO2 UPE14RAB14E21SNB21 P0001 FZRANO $
KY50 250239Z AUTO 36004KT 3SM -SN BR OVC005 01/00 A2983 RMK AO2 UPE14RAB14E21SNB21 P0000 FZRANO $
KY50 250228Z AUTO 36005KT 2 1/2SM -SN BR OVC003 01/00 A2983 RMK AO2 UPE14RAB14E21SNB21 P0000 FZRANO $
KY50 250208Z AUTO 36006KT 3SM UP BR OVC003 01/00 A2984 RMK AO2 P0000 FZRANO $
KY50 250156Z AUTO 36006KT 2 1/2SM UP BR OVC003 01/00 A2984 RMK AO2 SLP112 P0000 T00060000 FZRANO $
KY50 250106Z AUTO 02006KT 3SM UP OVC003 01/ A2985 RMK AO2 P0000 FZRANO $
KY50 250056Z AUTO 01005KT 2 1/2SM UP OVC003 01/ A2985 RMK AO2 UPB00 SLP116 P0000 T0006 FZRANO $
KY50 250030Z AUTO 02006KT 2 1/2SM UP BR OVC003 01/00 A2985 RMK AO2 UPB00 P0000 FZRANO $
KY50 242356Z AUTO 02006KT 3SM BR OVC003 01/00 A2986 RMK AO2 UPB16E38 SLP118 P0000 60000 T00060000 10011 20006 56003 FZRANO $
KY50 242336Z AUTO 02005KT 3SM UP BR OVC003 01/00 A2986 RMK AO2 UPB16 P0000 FZRANO $
KY50 242303Z AUTO 02005KT 2SM BR OVC003 01/00 A2986 RMK AO2 FZRANO $
KY50 242256Z AUTO 3SM BR OVC003 01/00 A2986 RMK AO2 UPE36 SLP118 P0000 T00060000 FZRANO $
KY50 242156Z AUTO 02007KT 4SM UP BR OVC003 01/00 A2986 RMK AO2 RAE21UPB21 SLP118 P0000 T00110000 FZRANO $
KY50 242117Z AUTO 02007KT 4SM -RA BR OVC003 01/01 RMK AO2 P0000 FZRANO $
KY50 242105Z AUTO 02006KT 2SM -RA BR OVC003 01/01 A2986 RMK AO2 P0000 FZRANO $